AVA225 SAME-SCIE
Flight info
| Callsign | AVA225 |
|---|---|
| Flight time | 1h 12m |
| Altitude | 32000 |
| Route | UMKAL2C UMKAL UL405 RIBLA/N0470F310 DCT GELUS UQ809 ARUNI ARUNI6C |
| Aircraft | A320/M-SDE3FGHIRWY/LB1 |
Departure
| Time | 2026-05-08 19:46 |
|---|---|
| Airport | Governor Francisco Gabrielli International Airport (SAME) |
Arrival
| Time | 2026-05-08 20:59 |
|---|---|
| Airport | Carriel Sur International Airport (SCIE) |
| Time | Latitude | Longitude | Altitude | Speed | Heading |
|---|---|---|---|---|---|
| 2026-05-08 19:05 | -32.82722 | -68.79781 | 2327 ft | 0 kts | 271° |
| 2026-05-08 19:33 | -32.82722 | -68.79773 | 2326 ft | 4 kts | 269° |
| 2026-05-08 19:33 | -32.82720 | -68.79741 | 2328 ft | 4 kts | 255° |
| 2026-05-08 19:33 | -32.82715 | -68.79723 | 2326 ft | 4 kts | 237° |
| 2026-05-08 19:33 | -32.82698 | -68.79706 | 2326 ft | 3 kts | 184° |
| 2026-05-08 19:34 | -32.82691 | -68.79705 | 2326 ft | 0 kts | 182° |
| 2026-05-08 19:37 | -32.82693 | -68.79705 | 2326 ft | 1 kts | 182° |
| 2026-05-08 19:38 | -32.82713 | -68.79707 | 2326 ft | 4 kts | 183° |
| 2026-05-08 19:38 | -32.82747 | -68.79708 | 2326 ft | 6 kts | 181° |
| 2026-05-08 19:38 | -32.82788 | -68.79709 | 2326 ft | 6 kts | 181° |
| 2026-05-08 19:38 | -32.82831 | -68.79709 | 2326 ft | 6 kts | 180° |
| 2026-05-08 19:39 | -32.82875 | -68.79710 | 2326 ft | 6 kts | 181° |
| 2026-05-08 19:39 | -32.82918 | -68.79705 | 2326 ft | 6 kts | 156° |
| 2026-05-08 19:39 | -32.82930 | -68.79662 | 2326 ft | 6 kts | 93° |
| 2026-05-08 19:39 | -32.82947 | -68.79605 | 2327 ft | 9 kts | 133° |
| 2026-05-08 19:40 | -32.82995 | -68.79556 | 2329 ft | 10 kts | 140° |
| 2026-05-08 19:40 | -32.83032 | -68.79521 | 2327 ft | 11 kts | 148° |
| 2026-05-08 19:40 | -32.83111 | -68.79513 | 2326 ft | 12 kts | 180° |
| 2026-05-08 19:40 | -32.83205 | -68.79515 | 2327 ft | 15 kts | 181° |
| 2026-05-08 19:41 | -32.83318 | -68.79518 | 2326 ft | 18 kts | 181° |
| 2026-05-08 19:41 | -32.83448 | -68.79520 | 2326 ft | 20 kts | 181° |
| 2026-05-08 19:41 | -32.83598 | -68.79524 | 2329 ft | 23 kts | 180° |
| 2026-05-08 19:41 | -32.83687 | -68.79525 | 2326 ft | 24 kts | 181° |
| 2026-05-08 19:42 | -32.83863 | -68.79529 | 2326 ft | 20 kts | 181° |
| 2026-05-08 19:42 | -32.83964 | -68.79531 | 2328 ft | 15 kts | 181° |
| 2026-05-08 19:42 | -32.84036 | -68.79520 | 2328 ft | 10 kts | 151° |
| 2026-05-08 19:42 | -32.84104 | -68.79485 | 2328 ft | 11 kts | 161° |
| 2026-05-08 19:43 | -32.84183 | -68.79453 | 2327 ft | 13 kts | 161° |
| 2026-05-08 19:43 | -32.84260 | -68.79396 | 2330 ft | 14 kts | 125° |
| 2026-05-08 19:43 | -32.84341 | -68.79323 | 2328 ft | 16 kts | 167° |
| 2026-05-08 19:43 | -32.84456 | -68.79334 | 2328 ft | 12 kts | 192° |
| 2026-05-08 19:44 | -32.84489 | -68.79338 | 2328 ft | 2 kts | 142° |
| 2026-05-08 19:44 | -32.84484 | -68.79322 | 2328 ft | 2 kts | 63° |
| 2026-05-08 19:44 | -32.84470 | -68.79312 | 2328 ft | 3 kts | 21° |
| 2026-05-08 19:44 | -32.84448 | -68.79315 | 2330 ft | 4 kts | 351° |
| 2026-05-08 19:45 | -32.84426 | -68.79316 | 2329 ft | 0 kts | 359° |
| 2026-05-08 19:45 | -32.84417 | -68.79316 | 2330 ft | 10 kts | 360° |
| 2026-05-08 19:46 | -32.84256 | -68.79313 | 2329 ft | 59 kts | 1° |
| 2026-05-08 19:46 | -32.83618 | -68.79300 | 2325 ft | 122 kts | 1° |
| 2026-05-08 19:46 | -32.81535 | -68.79284 | 3182 ft | 156 kts | 0° |
| 2026-05-08 19:47 | -32.80828 | -68.79270 | 3644 ft | 157 kts | 0° |
| 2026-05-08 19:47 | -32.80083 | -68.79257 | 3923 ft | 166 kts | 0° |
| 2026-05-08 19:47 | -32.78854 | -68.79237 | 4184 ft | 189 kts | 1° |
| 2026-05-08 19:47 | -32.77461 | -68.79204 | 4401 ft | 213 kts | 4° |
| 2026-05-08 19:48 | -32.76026 | -68.78628 | 4605 ft | 233 kts | 41° |
| 2026-05-08 19:48 | -32.75112 | -68.76981 | 4889 ft | 253 kts | 72° |
| 2026-05-08 19:48 | -32.74694 | -68.74859 | 5292 ft | 274 kts | 81° |
| 2026-05-08 19:48 | -32.74423 | -68.72592 | 6121 ft | 278 kts | 82° |
| 2026-05-08 19:49 | -32.74148 | -68.70324 | 7043 ft | 279 kts | 81° |
| 2026-05-08 19:49 | -32.73811 | -68.68040 | 7882 ft | 283 kts | 78° |
| 2026-05-08 19:49 | -32.73404 | -68.65737 | 8698 ft | 287 kts | 77° |
| 2026-05-08 19:49 | -32.72946 | -68.63418 | 9485 ft | 291 kts | 75° |
| 2026-05-08 19:50 | -32.72449 | -68.61072 | 10183 ft | 298 kts | 75° |
| 2026-05-08 19:50 | -32.71904 | -68.58598 | 10444 ft | 322 kts | 75° |
| 2026-05-08 19:50 | -32.71314 | -68.55955 | 10828 ft | 339 kts | 75° |
| 2026-05-08 19:50 | -32.70701 | -68.53227 | 11443 ft | 347 kts | 76° |
| 2026-05-08 19:51 | -32.70315 | -68.50399 | 12050 ft | 351 kts | 95° |
| 2026-05-08 19:51 | -32.70906 | -68.47621 | 12659 ft | 349 kts | 121° |
| 2026-05-08 19:51 | -32.72406 | -68.45422 | 13301 ft | 342 kts | 147° |
| 2026-05-08 19:51 | -32.74483 | -68.44159 | 13969 ft | 334 kts | 170° |
| 2026-05-08 19:52 | -32.76745 | -68.43980 | 14652 ft | 325 kts | 193° |
| 2026-05-08 19:52 | -32.77613 | -68.44203 | 14926 ft | 322 kts | 201° |
| 2026-05-08 19:52 | -32.79582 | -68.45459 | 15630 ft | 317 kts | 222° |
| 2026-05-08 19:52 | -32.80978 | -68.47456 | 16364 ft | 316 kts | 237° |
| 2026-05-08 19:53 | -32.81963 | -68.49787 | 17060 ft | 318 kts | 247° |
| 2026-05-08 19:53 | -32.82557 | -68.52340 | 17543 ft | 329 kts | 256° |
| 2026-05-08 19:53 | -32.82719 | -68.54239 | 17629 ft | 343 kts | 263° |
| 2026-05-08 19:53 | -32.82796 | -68.57131 | 17810 ft | 356 kts | 263° |
| 2026-05-08 19:54 | -32.82866 | -68.60092 | 18227 ft | 362 kts | 263° |
| 2026-05-08 19:54 | -32.82933 | -68.63085 | 18746 ft | 364 kts | 263° |
| 2026-05-08 19:54 | -32.82997 | -68.66098 | 19264 ft | 366 kts | 262° |
| 2026-05-08 19:54 | -32.83061 | -68.69121 | 19760 ft | 368 kts | 262° |
| 2026-05-08 19:55 | -32.83128 | -68.72168 | 20226 ft | 371 kts | 262° |
| 2026-05-08 19:55 | -32.83198 | -68.75237 | 20688 ft | 373 kts | 262° |
| 2026-05-08 19:55 | -32.83269 | -68.78320 | 21156 ft | 375 kts | 261° |
| 2026-05-08 19:55 | -32.83348 | -68.81419 | 21600 ft | 376 kts | 261° |
| 2026-05-08 19:56 | -32.83450 | -68.84522 | 22014 ft | 378 kts | 260° |
| 2026-05-08 19:56 | -32.83570 | -68.87645 | 22413 ft | 380 kts | 259° |
| 2026-05-08 19:56 | -32.83695 | -68.90780 | 22822 ft | 381 kts | 259° |
| 2026-05-08 19:56 | -32.83819 | -68.93924 | 23213 ft | 383 kts | 259° |
| 2026-05-08 19:57 | -32.83939 | -68.97086 | 23571 ft | 384 kts | 259° |
| 2026-05-08 19:57 | -32.84051 | -69.00238 | 23869 ft | 382 kts | 258° |
| 2026-05-08 19:57 | -32.84168 | -69.03405 | 24104 ft | 386 kts | 258° |
| 2026-05-08 19:57 | -32.84285 | -69.06598 | 24458 ft | 389 kts | 258° |
| 2026-05-08 19:58 | -32.84402 | -69.09809 | 24823 ft | 391 kts | 258° |
| 2026-05-08 19:58 | -32.84514 | -69.13035 | 25131 ft | 392 kts | 258° |
| 2026-05-08 19:58 | -32.84624 | -69.16283 | 25493 ft | 395 kts | 257° |
| 2026-05-08 19:58 | -32.84740 | -69.19546 | 25788 ft | 397 kts | 257° |
| 2026-05-08 19:59 | -32.84880 | -69.22769 | 26126 ft | 397 kts | 256° |
| 2026-05-08 19:59 | -32.85035 | -69.26028 | 26443 ft | 399 kts | 256° |
| 2026-05-08 19:59 | -32.85200 | -69.29319 | 26687 ft | 400 kts | 256° |
| 2026-05-08 19:59 | -32.85366 | -69.32612 | 26952 ft | 401 kts | 256° |
| 2026-05-08 20:00 | -32.85530 | -69.35920 | 27245 ft | 402 kts | 256° |
| 2026-05-08 20:00 | -32.85688 | -69.39227 | 27438 ft | 404 kts | 256° |
| 2026-05-08 20:00 | -32.85843 | -69.42564 | 27712 ft | 405 kts | 256° |
| 2026-05-08 20:00 | -32.85991 | -69.45907 | 27975 ft | 405 kts | 255° |
| 2026-05-08 20:01 | -32.86137 | -69.49249 | 28338 ft | 406 kts | 255° |
| 2026-05-08 20:01 | -32.86284 | -69.52581 | 28740 ft | 403 kts | 255° |
| 2026-05-08 20:01 | -32.86430 | -69.55896 | 29086 ft | 401 kts | 255° |
| 2026-05-08 20:01 | -32.86579 | -69.59197 | 29442 ft | 399 kts | 254° |
| 2026-05-08 20:02 | -32.86725 | -69.62476 | 29678 ft | 397 kts | 254° |
| 2026-05-08 20:02 | -32.86756 | -69.63164 | 29716 ft | 398 kts | 254° |
| 2026-05-08 20:02 | -32.86890 | -69.66221 | 30363 ft | 388 kts | 253° |
| 2026-05-08 20:02 | -32.87036 | -69.69307 | 30530 ft | 392 kts | 254° |
| 2026-05-08 20:03 | -32.87183 | -69.72540 | 30747 ft | 393 kts | 254° |
| 2026-05-08 20:03 | -32.87325 | -69.75780 | 31096 ft | 393 kts | 253° |
| 2026-05-08 20:03 | -32.87460 | -69.79013 | 31415 ft | 392 kts | 253° |
| 2026-05-08 20:03 | -32.87595 | -69.82240 | 31632 ft | 391 kts | 253° |
| 2026-05-08 20:04 | -32.87730 | -69.85456 | 31966 ft | 389 kts | 253° |
| 2026-05-08 20:04 | -32.87861 | -69.88658 | 32301 ft | 387 kts | 253° |
| 2026-05-08 20:04 | -32.87992 | -69.91840 | 32581 ft | 386 kts | 253° |
| 2026-05-08 20:04 | -32.88115 | -69.94838 | 32896 ft | 386 kts | 253° |
| 2026-05-08 20:05 | -32.88244 | -69.98012 | 33261 ft | 384 kts | 252° |
| 2026-05-08 20:05 | -32.88375 | -70.01173 | 33479 ft | 384 kts | 253° |
| 2026-05-08 20:05 | -32.88516 | -70.04345 | 33896 ft | 384 kts | 252° |
| 2026-05-08 20:05 | -32.88658 | -70.07492 | 34280 ft | 381 kts | 251° |
| 2026-05-08 20:06 | -32.88791 | -70.10400 | 34598 ft | 379 kts | 252° |
| 2026-05-08 20:06 | -32.88933 | -70.13525 | 34940 ft | 379 kts | 252° |
| 2026-05-08 20:06 | -32.89074 | -70.16651 | 35109 ft | 379 kts | 252° |
| 2026-05-08 20:06 | -32.89213 | -70.19776 | 35310 ft | 379 kts | 252° |
| 2026-05-08 20:07 | -32.89349 | -70.22893 | 35562 ft | 377 kts | 252° |
| 2026-05-08 20:07 | -32.89486 | -70.26006 | 35856 ft | 378 kts | 252° |
| 2026-05-08 20:07 | -32.89625 | -70.29125 | 36020 ft | 379 kts | 252° |
| 2026-05-08 20:07 | -32.89767 | -70.32257 | 36051 ft | 382 kts | 252° |
| 2026-05-08 20:08 | -32.89916 | -70.35642 | 36064 ft | 383 kts | 252° |
| 2026-05-08 20:08 | -32.90184 | -70.41984 | 36066 ft | 387 kts | 253° |
| 2026-05-08 20:09 | -32.90546 | -70.48288 | 36061 ft | 372 kts | 245° |
| 2026-05-08 20:09 | -32.91274 | -70.51152 | 36078 ft | 356 kts | 235° |
| 2026-05-08 20:09 | -32.92455 | -70.53661 | 36089 ft | 343 kts | 226° |
| 2026-05-08 20:10 | -32.95877 | -70.57356 | 36078 ft | 328 kts | 208° |
| 2026-05-08 20:10 | -32.99907 | -70.59946 | 36069 ft | 334 kts | 207° |
| 2026-05-08 20:11 | -33.03962 | -70.62593 | 36097 ft | 331 kts | 207° |
| 2026-05-08 20:11 | -33.07268 | -70.64753 | 36094 ft | 328 kts | 207° |
| 2026-05-08 20:12 | -33.08628 | -70.65642 | 36098 ft | 329 kts | 207° |
| 2026-05-08 20:12 | -33.12446 | -70.67852 | 36083 ft | 330 kts | 207° |
| 2026-05-08 20:13 | -33.15245 | -70.69763 | 36091 ft | 333 kts | 208° |
| 2026-05-08 20:13 | -33.19212 | -70.72523 | 36103 ft | 329 kts | 208° |
| 2026-05-08 20:14 | -33.23182 | -70.75179 | 36107 ft | 327 kts | 207° |
| 2026-05-08 20:14 | -33.24576 | -70.76093 | 36106 ft | 328 kts | 207° |
| 2026-05-08 20:15 | -33.28572 | -70.78691 | 36102 ft | 328 kts | 207° |
| 2026-05-08 20:15 | -33.32565 | -70.81299 | 36101 ft | 328 kts | 207° |
| 2026-05-08 20:16 | -33.36524 | -70.83898 | 36103 ft | 328 kts | 207° |
| 2026-05-08 20:16 | -33.40512 | -70.86528 | 36105 ft | 328 kts | 207° |
| 2026-05-08 20:17 | -33.44502 | -70.89157 | 36107 ft | 329 kts | 207° |
| 2026-05-08 20:17 | -33.47955 | -70.91432 | 36105 ft | 329 kts | 207° |
| 2026-05-08 20:18 | -33.51949 | -70.94067 | 36105 ft | 329 kts | 207° |
| 2026-05-08 20:18 | -33.55551 | -70.96447 | 36104 ft | 328 kts | 207° |
| 2026-05-08 20:19 | -33.59240 | -70.98881 | 36103 ft | 328 kts | 207° |
| 2026-05-08 20:19 | -33.63227 | -71.01522 | 36102 ft | 329 kts | 207° |
| 2026-05-08 20:20 | -33.67226 | -71.04173 | 36102 ft | 329 kts | 208° |
| 2026-05-08 20:20 | -33.71212 | -71.06812 | 36101 ft | 329 kts | 207° |
| 2026-05-08 20:21 | -33.75203 | -71.09455 | 36101 ft | 327 kts | 208° |
| 2026-05-08 20:21 | -33.78302 | -71.11516 | 36091 ft | 328 kts | 207° |
| 2026-05-08 20:22 | -33.80709 | -71.13112 | 36091 ft | 329 kts | 207° |
| 2026-05-08 20:22 | -33.84706 | -71.15769 | 36093 ft | 329 kts | 207° |
| 2026-05-08 20:23 | -33.88697 | -71.18425 | 36090 ft | 329 kts | 207° |
| 2026-05-08 20:23 | -33.92688 | -71.21072 | 36091 ft | 329 kts | 207° |
| 2026-05-08 20:24 | -33.93270 | -71.21444 | 36090 ft | 329 kts | 206° |
| 2026-05-08 20:24 | -33.96181 | -71.23273 | 36070 ft | 328 kts | 206° |
| 2026-05-08 20:25 | -34.00257 | -71.25707 | 36065 ft | 328 kts | 206° |
| 2026-05-08 20:25 | -34.04331 | -71.28151 | 36072 ft | 328 kts | 206° |
| 2026-05-08 20:26 | -34.08401 | -71.30639 | 36073 ft | 329 kts | 206° |
| 2026-05-08 20:26 | -34.12474 | -71.33150 | 36085 ft | 329 kts | 206° |
| 2026-05-08 20:27 | -34.16269 | -71.35489 | 36091 ft | 330 kts | 206° |
| 2026-05-08 20:28 | -34.19391 | -71.37399 | 36095 ft | 330 kts | 206° |
| 2026-05-08 20:28 | -34.23464 | -71.39914 | 36095 ft | 330 kts | 206° |
| 2026-05-08 20:29 | -34.27550 | -71.42444 | 36093 ft | 330 kts | 206° |
| 2026-05-08 20:29 | -34.31633 | -71.44964 | 36093 ft | 330 kts | 206° |
| 2026-05-08 20:30 | -34.35718 | -71.47489 | 36093 ft | 330 kts | 206° |
| 2026-05-08 20:30 | -34.39593 | -71.49886 | 36091 ft | 330 kts | 206° |
| 2026-05-08 20:31 | -34.43216 | -71.52125 | 36090 ft | 330 kts | 206° |
| 2026-05-08 20:31 | -34.47292 | -71.54657 | 36088 ft | 330 kts | 206° |
| 2026-05-08 20:32 | -34.56281 | -71.60233 | 36069 ft | 329 kts | 206° |
| 2026-05-08 20:32 | -34.72526 | -71.70377 | 36066 ft | 329 kts | 206° |
| 2026-05-08 20:33 | -34.88456 | -71.80334 | 36070 ft | 328 kts | 206° |
| 2026-05-08 20:33 | -35.04613 | -71.90479 | 36078 ft | 327 kts | 206° |
| 2026-05-08 20:34 | -35.14921 | -71.97005 | 36089 ft | 326 kts | 206° |
| 2026-05-08 20:35 | -35.20945 | -72.00811 | 35980 ft | 326 kts | 206° |
| 2026-05-08 20:35 | -35.22953 | -72.02077 | 35726 ft | 325 kts | 205° |
| 2026-05-08 20:35 | -35.24262 | -72.02902 | 35567 ft | 325 kts | 205° |
| 2026-05-08 20:35 | -35.26267 | -72.04171 | 35313 ft | 325 kts | 205° |
| 2026-05-08 20:36 | -35.28247 | -72.05426 | 35062 ft | 324 kts | 205° |
| 2026-05-08 20:36 | -35.30246 | -72.06695 | 34815 ft | 325 kts | 205° |
| 2026-05-08 20:36 | -35.32254 | -72.07969 | 34566 ft | 326 kts | 205° |
| 2026-05-08 20:36 | -35.34039 | -72.09104 | 34343 ft | 325 kts | 205° |
| 2026-05-08 20:37 | -35.36043 | -72.10379 | 34096 ft | 325 kts | 204° |
| 2026-05-08 20:37 | -35.38043 | -72.11655 | 33847 ft | 324 kts | 204° |
| 2026-05-08 20:37 | -35.40043 | -72.12930 | 33598 ft | 325 kts | 204° |
| 2026-05-08 20:37 | -35.42046 | -72.14205 | 33349 ft | 326 kts | 204° |
| 2026-05-08 20:38 | -35.44054 | -72.15484 | 33096 ft | 326 kts | 204° |
| 2026-05-08 20:38 | -35.46066 | -72.16768 | 32845 ft | 327 kts | 204° |
| 2026-05-08 20:38 | -35.48085 | -72.18057 | 32595 ft | 328 kts | 204° |
| 2026-05-08 20:38 | -35.50113 | -72.19351 | 32318 ft | 330 kts | 204° |
| 2026-05-08 20:39 | -35.52156 | -72.20655 | 31475 ft | 332 kts | 204° |
| 2026-05-08 20:39 | -35.54168 | -72.21943 | 30599 ft | 321 kts | 204° |
| 2026-05-08 20:39 | -35.56108 | -72.23187 | 29760 ft | 310 kts | 204° |
| 2026-05-08 20:39 | -35.58016 | -72.24406 | 28934 ft | 312 kts | 204° |
| 2026-05-08 20:40 | -35.59950 | -72.25638 | 28102 ft | 316 kts | 204° |
| 2026-05-08 20:40 | -35.61913 | -72.26892 | 27254 ft | 321 kts | 205° |
| 2026-05-08 20:40 | -35.63907 | -72.28171 | 26399 ft | 328 kts | 205° |
| 2026-05-08 20:40 | -35.65941 | -72.29475 | 25510 ft | 331 kts | 205° |
| 2026-05-08 20:41 | -35.67975 | -72.30781 | 24628 ft | 330 kts | 205° |
| 2026-05-08 20:41 | -35.69996 | -72.32080 | 23756 ft | 326 kts | 205° |
| 2026-05-08 20:41 | -35.71828 | -72.33254 | 22939 ft | 324 kts | 206° |
| 2026-05-08 20:41 | -35.73832 | -72.34541 | 22080 ft | 327 kts | 206° |
| 2026-05-08 20:42 | -35.75852 | -72.35840 | 21209 ft | 330 kts | 206° |
| 2026-05-08 20:42 | -35.77883 | -72.37150 | 20340 ft | 331 kts | 205° |
| 2026-05-08 20:42 | -35.79913 | -72.38462 | 19634 ft | 329 kts | 206° |
| 2026-05-08 20:42 | -35.81925 | -72.39759 | 18987 ft | 325 kts | 205° |
| 2026-05-08 20:43 | -35.83910 | -72.41035 | 18376 ft | 322 kts | 205° |
| 2026-05-08 20:43 | -35.85880 | -72.42304 | 17783 ft | 319 kts | 205° |
| 2026-05-08 20:43 | -35.87806 | -72.43543 | 17190 ft | 315 kts | 205° |
| 2026-05-08 20:43 | -35.89722 | -72.44830 | 16644 ft | 314 kts | 207° |
| 2026-05-08 20:44 | -35.91584 | -72.46184 | 16121 ft | 313 kts | 208° |
| 2026-05-08 20:44 | -35.93446 | -72.47596 | 15609 ft | 317 kts | 209° |
| 2026-05-08 20:44 | -35.95318 | -72.49013 | 15124 ft | 324 kts | 210° |
| 2026-05-08 20:44 | -35.97227 | -72.50465 | 14592 ft | 326 kts | 210° |
| 2026-05-08 20:45 | -35.99151 | -72.51931 | 14056 ft | 328 kts | 211° |
| 2026-05-08 20:45 | -36.01084 | -72.53394 | 13513 ft | 329 kts | 211° |
| 2026-05-08 20:45 | -36.03050 | -72.54876 | 12934 ft | 331 kts | 211° |
| 2026-05-08 20:45 | -36.05016 | -72.56357 | 12376 ft | 332 kts | 211° |
| 2026-05-08 20:46 | -36.06991 | -72.57845 | 11750 ft | 334 kts | 212° |
| 2026-05-08 20:46 | -36.08974 | -72.59334 | 11232 ft | 332 kts | 211° |
| 2026-05-08 20:46 | -36.10695 | -72.60623 | 11111 ft | 318 kts | 212° |
| 2026-05-08 20:46 | -36.12544 | -72.62010 | 10978 ft | 306 kts | 212° |
| 2026-05-08 20:47 | -36.14320 | -72.63350 | 10858 ft | 291 kts | 212° |
| 2026-05-08 20:47 | -36.15998 | -72.64615 | 10515 ft | 280 kts | 212° |
| 2026-05-08 20:47 | -36.17645 | -72.65858 | 10243 ft | 276 kts | 212° |
| 2026-05-08 20:47 | -36.19277 | -72.67088 | 9999 ft | 275 kts | 212° |
| 2026-05-08 20:48 | -36.20910 | -72.68319 | 9857 ft | 276 kts | 211° |
| 2026-05-08 20:48 | -36.22549 | -72.69558 | 9732 ft | 276 kts | 211° |
| 2026-05-08 20:48 | -36.24189 | -72.70799 | 9606 ft | 277 kts | 211° |
| 2026-05-08 20:48 | -36.25566 | -72.71838 | 9498 ft | 277 kts | 211° |
| 2026-05-08 20:49 | -36.27209 | -72.73078 | 9373 ft | 277 kts | 211° |
| 2026-05-08 20:49 | -36.28853 | -72.74320 | 9236 ft | 277 kts | 211° |
| 2026-05-08 20:49 | -36.30502 | -72.75568 | 8918 ft | 278 kts | 211° |
| 2026-05-08 20:49 | -36.32153 | -72.76813 | 8499 ft | 279 kts | 211° |
| 2026-05-08 20:50 | -36.33803 | -72.78066 | 8076 ft | 278 kts | 211° |
| 2026-05-08 20:50 | -36.35247 | -72.79168 | 7728 ft | 278 kts | 211° |
| 2026-05-08 20:50 | -36.36254 | -72.79932 | 7469 ft | 277 kts | 211° |
| 2026-05-08 20:50 | -36.37628 | -72.80975 | 7153 ft | 275 kts | 211° |
| 2026-05-08 20:51 | -36.39228 | -72.82189 | 6801 ft | 274 kts | 211° |
| 2026-05-08 20:51 | -36.40852 | -72.83410 | 6358 ft | 274 kts | 211° |
| 2026-05-08 20:51 | -36.42469 | -72.84615 | 5945 ft | 271 kts | 210° |
| 2026-05-08 20:51 | -36.44063 | -72.85803 | 5411 ft | 263 kts | 211° |
| 2026-05-08 20:52 | -36.45382 | -72.86788 | 5082 ft | 254 kts | 211° |
| 2026-05-08 20:52 | -36.46870 | -72.87902 | 4698 ft | 252 kts | 211° |
| 2026-05-08 20:52 | -36.48359 | -72.89020 | 4309 ft | 251 kts | 211° |
| 2026-05-08 20:52 | -36.49844 | -72.90130 | 3925 ft | 250 kts | 211° |
| 2026-05-08 20:53 | -36.51319 | -72.91223 | 3562 ft | 248 kts | 208° |
| 2026-05-08 20:53 | -36.52828 | -72.92107 | 3533 ft | 233 kts | 205° |
| 2026-05-08 20:53 | -36.54232 | -72.92921 | 3536 ft | 220 kts | 205° |
| 2026-05-08 20:53 | -36.55595 | -72.93715 | 3538 ft | 213 kts | 205° |
| 2026-05-08 20:54 | -36.56890 | -72.94472 | 3534 ft | 200 kts | 205° |
| 2026-05-08 20:54 | -36.58126 | -72.95190 | 3535 ft | 195 kts | 205° |
| 2026-05-08 20:54 | -36.59347 | -72.95899 | 3538 ft | 194 kts | 205° |
| 2026-05-08 20:54 | -36.60555 | -72.96600 | 3397 ft | 197 kts | 205° |
| 2026-05-08 20:55 | -36.61808 | -72.97328 | 3099 ft | 201 kts | 204° |
| 2026-05-08 20:55 | -36.62817 | -72.97918 | 2903 ft | 198 kts | 205° |
| 2026-05-08 20:55 | -36.64039 | -72.98626 | 2636 ft | 191 kts | 205° |
| 2026-05-08 20:55 | -36.65211 | -72.99302 | 2383 ft | 179 kts | 205° |
| 2026-05-08 20:56 | -36.66292 | -72.99926 | 2152 ft | 165 kts | 205° |
| 2026-05-08 20:56 | -36.67298 | -73.00509 | 1955 ft | 155 kts | 205° |
| 2026-05-08 20:56 | -36.68235 | -73.01053 | 1773 ft | 147 kts | 205° |
| 2026-05-08 20:56 | -36.69142 | -73.01579 | 1583 ft | 143 kts | 205° |
| 2026-05-08 20:57 | -36.70037 | -73.02099 | 1386 ft | 141 kts | 205° |
| 2026-05-08 20:57 | -36.70919 | -73.02605 | 1199 ft | 141 kts | 205° |
| 2026-05-08 20:57 | -36.71795 | -73.03115 | 1007 ft | 140 kts | 205° |
| 2026-05-08 20:57 | -36.72662 | -73.03623 | 817 ft | 140 kts | 206° |
| 2026-05-08 20:58 | -36.73534 | -73.04131 | 628 ft | 139 kts | 205° |
| 2026-05-08 20:58 | -36.74403 | -73.04634 | 435 ft | 139 kts | 205° |
| 2026-05-08 20:58 | -36.75273 | -73.05141 | 272 ft | 139 kts | 207° |
| 2026-05-08 20:58 | -36.76144 | -73.05666 | 104 ft | 140 kts | 205° |
| 2026-05-08 20:59 | -36.76942 | -73.06129 | 57 ft | 108 kts | 205° |
| 2026-05-08 20:59 | -36.77327 | -73.06357 | 67 ft | 23 kts | 204° |
| 2026-05-08 20:59 | -36.77429 | -73.06332 | 59 ft | 10 kts | 173° |
| 2026-05-08 20:59 | -36.77488 | -73.06326 | 57 ft | 8 kts | 175° |
| 2026-05-08 21:00 | -36.77530 | -73.06322 | 62 ft | 4 kts | 174° |
| 2026-05-08 21:00 | -36.77535 | -73.06321 | 59 ft | 2 kts | 174° |
| 2026-05-08 21:00 | -36.77560 | -73.06319 | 62 ft | 0 kts | 175° |
| 2026-05-08 21:00 | -36.77561 | -73.06319 | 62 ft | 0 kts | 175° |
| 2026-05-08 21:01 | -36.77584 | -73.06316 | 57 ft | 7 kts | 175° |
| 2026-05-08 21:01 | -36.77619 | -73.06312 | 61 ft | 6 kts | 174° |
| 2026-05-08 21:01 | -36.77685 | -73.06323 | 56 ft | 13 kts | 200° |
| 2026-05-08 21:01 | -36.77788 | -73.06381 | 57 ft | 20 kts | 206° |
| 2026-05-08 21:02 | -36.77928 | -73.06465 | 58 ft | 25 kts | 205° |
| 2026-05-08 21:02 | -36.78016 | -73.06516 | 61 ft | 1 kts | 207° |
| 2026-05-08 21:02 | -36.78015 | -73.06522 | 61 ft | 1 kts | 261° |
| 2026-05-08 21:02 | -36.78011 | -73.06533 | 61 ft | 3 kts | 288° |
| 2026-05-08 21:03 | -36.77998 | -73.06577 | 58 ft | 7 kts | 292° |
| 2026-05-08 21:03 | -36.77973 | -73.06647 | 57 ft | 10 kts | 298° |
| 2026-05-08 21:03 | -36.77911 | -73.06693 | 60 ft | 13 kts | 4° |
| 2026-05-08 21:03 | -36.77809 | -73.06640 | 61 ft | 19 kts | 24° |
| 2026-05-08 21:04 | -36.77675 | -73.06562 | 58 ft | 24 kts | 25° |
| 2026-05-08 21:04 | -36.77514 | -73.06468 | 65 ft | 28 kts | 25° |
| 2026-05-08 21:04 | -36.77420 | -73.06394 | 67 ft | 13 kts | 61° |
| 2026-05-08 21:04 | -36.77493 | -73.06325 | 63 ft | 20 kts | 174° |
| 2026-05-08 21:05 | -36.77584 | -73.06315 | 61 ft | 15 kts | 175° |
| 2026-05-08 21:05 | -36.77621 | -73.06292 | 58 ft | 6 kts | 94° |
| 2026-05-08 21:05 | -36.77571 | -73.06254 | 61 ft | 11 kts | 22° |
| 2026-05-08 21:05 | -36.77512 | -73.06169 | 53 ft | 17 kts | 88° |
| 2026-05-08 21:06 | -36.77535 | -73.06026 | 60 ft | 19 kts | 93° |
| 2026-05-08 21:06 | -36.77541 | -73.05939 | 54 ft | 5 kts | 99° |
| 2026-05-08 21:06 | -36.77548 | -73.05904 | 60 ft | 3 kts | 105° |
| 2026-05-08 21:06 | -36.77573 | -73.05886 | 54 ft | 6 kts | 168° |
| 2026-05-08 21:07 | -36.77594 | -73.05891 | 60 ft | 0 kts | 195° |
| 2026-05-08 21:10 | -36.77598 | -73.05892 | 52 ft | 2 kts | 193° |
| 2026-05-08 21:10 | -36.77606 | -73.05895 | 60 ft | 2 kts | 196° |
| 2026-05-08 21:10 | -36.77609 | -73.05896 | 58 ft | 0 kts | 198° |